sensor_id;sensor_type;location;lat;lon;timestamp;P1;durP1;ratioP1;P2;durP2;ratioP2
10311;SDS011;5201;48.776;9.128;2023-05-29T00:01:12;5.00;;;2.30;;
10311;SDS011;5201;48.776;9.128;2023-05-29T00:03:38;7.17;;;2.50;;
10311;SDS011;5201;48.776;9.128;2023-05-29T00:06:04;7.43;;;2.53;;
10311;SDS011;5201;48.776;9.128;2023-05-29T00:08:31;6.47;;;2.30;;
10311;SDS011;5201;48.776;9.128;2023-05-29T00:10:57;8.07;;;2.30;;
10311;SDS011;5201;48.776;9.128;2023-05-29T00:13:23;3.93;;;2.30;;
10311;SDS011;5201;48.776;9.128;2023-05-29T00:15:48;3.33;;;2.10;;
10311;SDS011;5201;48.776;9.128;2023-05-29T00:18:14;5.97;;;2.50;;
10311;SDS011;5201;48.776;9.128;2023-05-29T00:20:39;7.80;;;2.57;;
10311;SDS011;5201;48.776;9.128;2023-05-29T00:23:05;4.33;;;2.10;;
10311;SDS011;5201;48.776;9.128;2023-05-29T00:25:31;4.43;;;2.10;;
10311;SDS011;5201;48.776;9.128;2023-05-29T00:27:57;4.93;;;2.40;;
10311;SDS011;5201;48.776;9.128;2023-05-29T00:30:22;4.33;;;2.10;;
10311;SDS011;5201;48.776;9.128;2023-05-29T00:32:48;4.83;;;2.73;;
10311;SDS011;5201;48.776;9.128;2023-05-29T00:35:14;5.67;;;2.40;;
10311;SDS011;5201;48.776;9.128;2023-05-29T00:37:40;8.67;;;2.67;;
10311;SDS011;5201;48.776;9.128;2023-05-29T00:40:06;3.47;;;2.13;;
10311;SDS011;5201;48.776;9.128;2023-05-29T00:42:32;5.63;;;2.67;;
10311;SDS011;5201;48.776;9.128;2023-05-29T00:44:57;3.77;;;2.43;;
10311;SDS011;5201;48.776;9.128;2023-05-29T00:47:23;3.40;;;2.10;;
10311;SDS011;5201;48.776;9.128;2023-05-29T00:49:49;7.67;;;2.93;;
10311;SDS011;5201;48.776;9.128;2023-05-29T00:52:17;5.00;;;2.73;;
10311;SDS011;5201;48.776;9.128;2023-05-29T00:54:44;4.30;;;2.20;;
10311;SDS011;5201;48.776;9.128;2023-05-29T00:57:10;9.23;;;2.37;;
10311;SDS011;5201;48.776;9.128;2023-05-29T00:59:39;5.43;;;2.27;;
10311;SDS011;5201;48.776;9.128;2023-05-29T01:02:06;4.57;;;2.57;;
10311;SDS011;5201;48.776;9.128;2023-05-29T01:04:31;5.63;;;2.20;;
10311;SDS011;5201;48.776;9.128;2023-05-29T01:06:59;5.93;;;2.23;;
10311;SDS011;5201;48.776;9.128;2023-05-29T01:09:27;4.40;;;2.20;;
10311;SDS011;5201;48.776;9.128;2023-05-29T01:20:23;4.90;;;2.50;;
10311;SDS011;5201;48.776;9.128;2023-05-29T01:28:16;6.07;;;1.83;;
10311;SDS011;5201;48.776;9.128;2023-05-29T01:30:44;4.20;;;2.53;;
10311;SDS011;5201;48.776;9.128;2023-05-29T01:33:11;7.73;;;2.53;;
10311;SDS011;5201;48.776;9.128;2023-05-29T01:35:37;6.73;;;2.40;;
10311;SDS011;5201;48.776;9.128;2023-05-29T01:38:02;5.77;;;2.40;;
10311;SDS011;5201;48.776;9.128;2023-05-29T01:40:28;2.63;;;2.10;;
10311;SDS011;5201;48.776;9.128;2023-05-29T01:42:53;6.03;;;2.37;;
10311;SDS011;5201;48.776;9.128;2023-05-29T01:45:20;6.93;;;2.50;;
10311;SDS011;5201;48.776;9.128;2023-05-29T01:47:45;3.70;;;2.33;;
10311;SDS011;5201;48.776;9.128;2023-05-29T01:50:12;6.47;;;2.47;;
10311;SDS011;5201;48.776;9.128;2023-05-29T01:52:40;4.03;;;2.40;;
10311;SDS011;5201;48.776;9.128;2023-05-29T01:55:06;4.03;;;2.00;;
10311;SDS011;5201;48.776;9.128;2023-05-29T01:57:32;5.83;;;2.40;;
10311;SDS011;5201;48.776;9.128;2023-05-29T01:59:58;6.40;;;2.27;;
10311;SDS011;5201;48.776;9.128;2023-05-29T02:02:23;4.03;;;2.10;;
10311;SDS011;5201;48.776;9.128;2023-05-29T02:04:49;4.73;;;2.30;;
10311;SDS011;5201;48.776;9.128;2023-05-29T02:07:15;4.27;;;2.47;;
10311;SDS011;5201;48.776;9.128;2023-05-29T02:09:40;5.83;;;2.33;;
10311;SDS011;5201;48.776;9.128;2023-05-29T02:12:06;4.23;;;2.30;;
10311;SDS011;5201;48.776;9.128;2023-05-29T02:14:32;5.40;;;2.77;;
10311;SDS011;5201;48.776;9.128;2023-05-29T02:16:58;3.83;;;2.40;;
10311;SDS011;5201;48.776;9.128;2023-05-29T02:19:26;3.90;;;2.07;;
10311;SDS011;5201;48.776;9.128;2023-05-29T02:21:52;3.97;;;2.13;;
10311;SDS011;5201;48.776;9.128;2023-05-29T02:24:18;4.20;;;2.30;;
10311;SDS011;5201;48.776;9.128;2023-05-29T02:26:43;3.30;;;2.33;;
10311;SDS011;5201;48.776;9.128;2023-05-29T02:29:09;8.37;;;2.60;;
10311;SDS011;5201;48.776;9.128;2023-05-29T02:31:35;4.73;;;2.50;;
10311;SDS011;5201;48.776;9.128;2023-05-29T02:34:01;4.43;;;2.07;;
10311;SDS011;5201;48.776;9.128;2023-05-29T02:36:27;4.67;;;2.80;;
10311;SDS011;5201;48.776;9.128;2023-05-29T02:38:52;3.53;;;2.13;;
10311;SDS011;5201;48.776;9.128;2023-05-29T02:41:18;5.17;;;2.13;;
10311;SDS011;5201;48.776;9.128;2023-05-29T02:43:43;4.87;;;2.33;;
10311;SDS011;5201;48.776;9.128;2023-05-29T02:46:09;5.13;;;2.63;;
10311;SDS011;5201;48.776;9.128;2023-05-29T02:48:35;2.97;;;2.23;;
10311;SDS011;5201;48.776;9.128;2023-05-29T02:51:00;6.60;;;2.40;;
10311;SDS011;5201;48.776;9.128;2023-05-29T02:53:26;4.13;;;2.90;;
10311;SDS011;5201;48.776;9.128;2023-05-29T02:55:51;3.47;;;2.20;;
10311;SDS011;5201;48.776;9.128;2023-05-29T02:58:17;6.23;;;2.53;;
10311;SDS011;5201;48.776;9.128;2023-05-29T03:00:44;4.80;;;2.30;;
10311;SDS011;5201;48.776;9.128;2023-05-29T03:03:09;7.53;;;2.87;;
10311;SDS011;5201;48.776;9.128;2023-05-29T03:05:35;3.40;;;1.80;;
10311;SDS011;5201;48.776;9.128;2023-05-29T03:08:01;5.07;;;2.63;;
10311;SDS011;5201;48.776;9.128;2023-05-29T03:10:27;6.47;;;2.43;;
10311;SDS011;5201;48.776;9.128;2023-05-29T03:12:52;4.83;;;3.00;;
10311;SDS011;5201;48.776;9.128;2023-05-29T03:15:19;3.43;;;2.37;;
10311;SDS011;5201;48.776;9.128;2023-05-29T03:17:45;5.37;;;2.87;;
10311;SDS011;5201;48.776;9.128;2023-05-29T03:20:11;3.50;;;2.43;;
10311;SDS011;5201;48.776;9.128;2023-05-29T03:22:38;5.17;;;2.90;;
10311;SDS011;5201;48.776;9.128;2023-05-29T03:25:04;4.03;;;2.47;;
10311;SDS011;5201;48.776;9.128;2023-05-29T03:27:30;4.03;;;2.40;;
10311;SDS011;5201;48.776;9.128;2023-05-29T03:29:56;4.90;;;2.13;;
10311;SDS011;5201;48.776;9.128;2023-05-29T03:32:22;5.40;;;2.13;;
10311;SDS011;5201;48.776;9.128;2023-05-29T03:34:48;6.03;;;2.73;;
10311;SDS011;5201;48.776;9.128;2023-05-29T03:37:14;2.50;;;2.20;;
10311;SDS011;5201;48.776;9.128;2023-05-29T03:39:39;5.23;;;2.10;;
10311;SDS011;5201;48.776;9.128;2023-05-29T03:42:05;6.03;;;2.10;;
10311;SDS011;5201;48.776;9.128;2023-05-29T03:44:31;3.67;;;2.20;;
10311;SDS011;5201;48.776;9.128;2023-05-29T03:46:56;2.87;;;2.30;;
10311;SDS011;5201;48.776;9.128;2023-05-29T03:49:22;6.03;;;2.33;;
10311;SDS011;5201;48.776;9.128;2023-05-29T03:51:48;5.93;;;2.90;;
10311;SDS011;5201;48.776;9.128;2023-05-29T03:54:14;8.50;;;2.10;;
10311;SDS011;5201;48.776;9.128;2023-05-29T03:56:40;4.20;;;2.50;;
10311;SDS011;5201;48.776;9.128;2023-05-29T03:59:06;6.17;;;2.20;;
10311;SDS011;5201;48.776;9.128;2023-05-29T04:01:31;5.47;;;2.20;;
10311;SDS011;5201;48.776;9.128;2023-05-29T04:03:57;4.77;;;2.23;;
10311;SDS011;5201;48.776;9.128;2023-05-29T04:06:22;3.73;;;2.40;;
10311;SDS011;5201;48.776;9.128;2023-05-29T04:08:48;5.77;;;2.70;;
10311;SDS011;5201;48.776;9.128;2023-05-29T04:11:14;5.97;;;2.87;;
10311;SDS011;5201;48.776;9.128;2023-05-29T04:13:39;8.07;;;2.67;;
10311;SDS011;5201;48.776;9.128;2023-05-29T04:16:05;6.10;;;2.30;;
10311;SDS011;5201;48.776;9.128;2023-05-29T04:18:31;4.20;;;2.23;;
10311;SDS011;5201;48.776;9.128;2023-05-29T04:20:57;3.20;;;2.40;;
10311;SDS011;5201;48.776;9.128;2023-05-29T04:23:23;3.40;;;2.10;;
10311;SDS011;5201;48.776;9.128;2023-05-29T04:25:48;7.30;;;2.23;;
10311;SDS011;5201;48.776;9.128;2023-05-29T04:28:15;3.23;;;2.10;;
10311;SDS011;5201;48.776;9.128;2023-05-29T04:30:42;5.10;;;1.90;;
10311;SDS011;5201;48.776;9.128;2023-05-29T04:33:07;4.90;;;2.60;;
10311;SDS011;5201;48.776;9.128;2023-05-29T04:35:34;3.67;;;2.50;;
10311;SDS011;5201;48.776;9.128;2023-05-29T04:38:00;3.90;;;2.60;;
10311;SDS011;5201;48.776;9.128;2023-05-29T04:40:26;4.20;;;2.73;;
10311;SDS011;5201;48.776;9.128;2023-05-29T04:42:52;3.90;;;2.37;;
10311;SDS011;5201;48.776;9.128;2023-05-29T04:45:19;5.33;;;2.80;;
10311;SDS011;5201;48.776;9.128;2023-05-29T04:47:45;4.17;;;2.47;;
10311;SDS011;5201;48.776;9.128;2023-05-29T04:50:14;7.53;;;2.80;;
10311;SDS011;5201;48.776;9.128;2023-05-29T04:52:41;4.93;;;2.53;;
10311;SDS011;5201;48.776;9.128;2023-05-29T04:55:08;4.47;;;2.23;;
10311;SDS011;5201;48.776;9.128;2023-05-29T04:57:35;6.57;;;2.37;;
10311;SDS011;5201;48.776;9.128;2023-05-29T05:00:00;4.33;;;2.40;;
10311;SDS011;5201;48.776;9.128;2023-05-29T05:02:29;4.03;;;2.27;;
10311;SDS011;5201;48.776;9.128;2023-05-29T05:04:55;3.90;;;2.13;;
10311;SDS011;5201;48.776;9.128;2023-05-29T05:07:21;4.53;;;2.47;;
10311;SDS011;5201;48.776;9.128;2023-05-29T05:09:47;5.53;;;2.40;;
10311;SDS011;5201;48.776;9.128;2023-05-29T05:12:12;5.37;;;2.67;;
10311;SDS011;5201;48.776;9.128;2023-05-29T05:14:38;7.30;;;2.77;;
10311;SDS011;5201;48.776;9.128;2023-05-29T05:17:04;5.53;;;2.43;;
10311;SDS011;5201;48.776;9.128;2023-05-29T05:19:29;3.83;;;2.20;;
10311;SDS011;5201;48.776;9.128;2023-05-29T05:21:55;4.03;;;2.33;;
10311;SDS011;5201;48.776;9.128;2023-05-29T05:24:21;5.07;;;2.43;;
10311;SDS011;5201;48.776;9.128;2023-05-29T05:26:46;4.07;;;2.47;;
10311;SDS011;5201;48.776;9.128;2023-05-29T05:29:12;4.27;;;2.40;;
10311;SDS011;5201;48.776;9.128;2023-05-29T05:31:38;5.07;;;2.00;;
10311;SDS011;5201;48.776;9.128;2023-05-29T05:34:04;5.17;;;2.40;;
10311;SDS011;5201;48.776;9.128;2023-05-29T05:36:30;4.57;;;2.23;;
10311;SDS011;5201;48.776;9.128;2023-05-29T05:38:56;3.13;;;2.13;;
10311;SDS011;5201;48.776;9.128;2023-05-29T05:41:21;6.50;;;2.00;;
10311;SDS011;5201;48.776;9.128;2023-05-29T05:43:47;4.63;;;1.90;;
10311;SDS011;5201;48.776;9.128;2023-05-29T05:46:13;2.87;;;2.23;;
10311;SDS011;5201;48.776;9.128;2023-05-29T05:48:39;3.67;;;2.07;;
10311;SDS011;5201;48.776;9.128;2023-05-29T05:51:05;4.30;;;2.10;;
10311;SDS011;5201;48.776;9.128;2023-05-29T05:53:31;5.73;;;2.10;;
10311;SDS011;5201;48.776;9.128;2023-05-29T05:55:57;8.57;;;1.90;;
10311;SDS011;5201;48.776;9.128;2023-05-29T05:58:22;4.97;;;2.40;;
10311;SDS011;5201;48.776;9.128;2023-05-29T06:00:48;3.43;;;2.07;;
10311;SDS011;5201;48.776;9.128;2023-05-29T06:03:17;4.37;;;2.07;;
10311;SDS011;5201;48.776;9.128;2023-05-29T06:05:43;3.43;;;1.97;;
10311;SDS011;5201;48.776;9.128;2023-05-29T06:08:08;5.90;;;2.30;;
10311;SDS011;5201;48.776;9.128;2023-05-29T06:10:34;4.03;;;2.53;;
10311;SDS011;5201;48.776;9.128;2023-05-29T06:13:00;5.07;;;2.10;;
10311;SDS011;5201;48.776;9.128;2023-05-29T06:15:26;4.68;;;2.15;;
10311;SDS011;5201;48.776;9.128;2023-05-29T06:17:51;2.58;;;1.90;;
10311;SDS011;5201;48.776;9.128;2023-05-29T06:20:17;4.32;;;1.95;;
10311;SDS011;5201;48.776;9.128;2023-05-29T06:22:42;3.40;;;2.15;;
10311;SDS011;5201;48.776;9.128;2023-05-29T06:25:08;5.95;;;2.35;;
10311;SDS011;5201;48.776;9.128;2023-05-29T06:27:34;3.83;;;1.90;;
10311;SDS011;5201;48.776;9.128;2023-05-29T06:30:00;8.32;;;2.25;;
10311;SDS011;5201;48.776;9.128;2023-05-29T06:32:26;5.32;;;2.30;;
10311;SDS011;5201;48.776;9.128;2023-05-29T06:34:53;2.33;;;1.75;;
10311;SDS011;5201;48.776;9.128;2023-05-29T06:37:18;3.33;;;2.22;;
10311;SDS011;5201;48.776;9.128;2023-05-29T06:39:45;3.00;;;2.00;;
10311;SDS011;5201;48.776;9.128;2023-05-29T06:42:11;4.40;;;2.28;;
10311;SDS011;5201;48.776;9.128;2023-05-29T06:44:36;4.53;;;2.30;;
10311;SDS011;5201;48.776;9.128;2023-05-29T06:47:02;3.40;;;2.05;;
10311;SDS011;5201;48.776;9.128;2023-05-29T06:49:27;3.08;;;1.60;;
10311;SDS011;5201;48.776;9.128;2023-05-29T06:51:53;4.32;;;1.95;;
10311;SDS011;5201;48.776;9.128;2023-05-29T06:54:18;3.67;;;2.30;;
10311;SDS011;5201;48.776;9.128;2023-05-29T06:56:44;5.28;;;2.35;;
10311;SDS011;5201;48.776;9.128;2023-05-29T06:59:09;5.05;;;2.28;;
10311;SDS011;5201;48.776;9.128;2023-05-29T07:01:35;3.42;;;2.10;;
10311;SDS011;5201;48.776;9.128;2023-05-29T07:04:01;4.03;;;2.13;;
10311;SDS011;5201;48.776;9.128;2023-05-29T07:06:26;3.08;;;2.13;;
10311;SDS011;5201;48.776;9.128;2023-05-29T07:08:52;3.70;;;2.25;;
10311;SDS011;5201;48.776;9.128;2023-05-29T07:11:17;5.55;;;2.40;;
10311;SDS011;5201;48.776;9.128;2023-05-29T07:13:43;5.18;;;1.85;;
10311;SDS011;5201;48.776;9.128;2023-05-29T07:16:09;3.88;;;2.05;;
10311;SDS011;5201;48.776;9.128;2023-05-29T07:18:34;4.75;;;2.28;;
10311;SDS011;5201;48.776;9.128;2023-05-29T07:21:00;3.90;;;1.90;;
10311;SDS011;5201;48.776;9.128;2023-05-29T07:23:26;3.65;;;2.10;;
10311;SDS011;5201;48.776;9.128;2023-05-29T07:25:51;6.38;;;2.17;;
10311;SDS011;5201;48.776;9.128;2023-05-29T07:28:17;3.78;;;2.00;;
10311;SDS011;5201;48.776;9.128;2023-05-29T07:30:43;3.40;;;1.88;;
10311;SDS011;5201;48.776;9.128;2023-05-29T07:33:08;3.47;;;2.30;;
10311;SDS011;5201;48.776;9.128;2023-05-29T07:35:34;3.88;;;2.20;;
10311;SDS011;5201;48.776;9.128;2023-05-29T07:38:00;3.58;;;1.88;;
10311;SDS011;5201;48.776;9.128;2023-05-29T07:40:26;3.22;;;1.63;;
10311;SDS011;5201;48.776;9.128;2023-05-29T07:42:52;3.40;;;1.90;;
10311;SDS011;5201;48.776;9.128;2023-05-29T07:45:17;3.75;;;2.20;;
10311;SDS011;5201;48.776;9.128;2023-05-29T07:47:43;4.10;;;1.90;;
10311;SDS011;5201;48.776;9.128;2023-05-29T07:50:08;6.78;;;1.90;;
10311;SDS011;5201;48.776;9.128;2023-05-29T07:52:35;4.85;;;2.05;;
10311;SDS011;5201;48.776;9.128;2023-05-29T07:55:01;3.30;;;1.80;;
10311;SDS011;5201;48.776;9.128;2023-05-29T07:57:27;3.33;;;1.67;;
10311;SDS011;5201;48.776;9.128;2023-05-29T07:59:53;2.63;;;1.90;;
10311;SDS011;5201;48.776;9.128;2023-05-29T08:02:19;3.92;;;2.05;;
10311;SDS011;5201;48.776;9.128;2023-05-29T08:04:44;5.32;;;2.05;;
10311;SDS011;5201;48.776;9.128;2023-05-29T08:07:10;3.95;;;2.20;;
10311;SDS011;5201;48.776;9.128;2023-05-29T08:09:35;5.32;;;2.40;;
10311;SDS011;5201;48.776;9.128;2023-05-29T08:12:01;4.90;;;2.35;;
10311;SDS011;5201;48.776;9.128;2023-05-29T08:14:27;4.20;;;2.22;;
10311;SDS011;5201;48.776;9.128;2023-05-29T08:16:53;4.25;;;2.00;;
10311;SDS011;5201;48.776;9.128;2023-05-29T08:19:19;5.07;;;1.95;;
10311;SDS011;5201;48.776;9.128;2023-05-29T08:21:44;5.10;;;2.03;;
10311;SDS011;5201;48.776;9.128;2023-05-29T08:24:10;3.35;;;1.95;;
10311;SDS011;5201;48.776;9.128;2023-05-29T08:26:36;6.63;;;3.08;;
10311;SDS011;5201;48.776;9.128;2023-05-29T08:29:02;5.40;;;2.15;;
10311;SDS011;5201;48.776;9.128;2023-05-29T08:31:29;7.45;;;2.70;;
10311;SDS011;5201;48.776;9.128;2023-05-29T08:33:55;4.82;;;2.25;;
10311;SDS011;5201;48.776;9.128;2023-05-29T08:36:21;4.05;;;2.35;;
10311;SDS011;5201;48.776;9.128;2023-05-29T08:38:47;9.25;;;2.53;;
10311;SDS011;5201;48.776;9.128;2023-05-29T08:41:16;4.68;;;2.42;;
10311;SDS011;5201;48.776;9.128;2023-05-29T08:43:47;5.20;;;2.53;;
10311;SDS011;5201;48.776;9.128;2023-05-29T08:46:13;3.17;;;2.30;;
10311;SDS011;5201;48.776;9.128;2023-05-29T08:48:43;5.25;;;2.35;;
10311;SDS011;5201;48.776;9.128;2023-05-29T08:51:13;6.40;;;2.58;;
10311;SDS011;5201;48.776;9.128;2023-05-29T08:53:39;3.75;;;2.55;;
10311;SDS011;5201;48.776;9.128;2023-05-29T08:56:05;5.55;;;2.30;;
10311;SDS011;5201;48.776;9.128;2023-05-29T08:58:31;6.55;;;2.42;;
10311;SDS011;5201;48.776;9.128;2023-05-29T09:00:58;3.53;;;2.30;;
10311;SDS011;5201;48.776;9.128;2023-05-29T09:03:24;4.38;;;2.47;;
10311;SDS011;5201;48.776;9.128;2023-05-29T09:05:50;4.70;;;2.40;;
10311;SDS011;5201;48.776;9.128;2023-05-29T09:08:15;3.58;;;2.33;;
10311;SDS011;5201;48.776;9.128;2023-05-29T09:10:42;5.72;;;2.78;;
10311;SDS011;5201;48.776;9.128;2023-05-29T09:13:11;2.85;;;2.20;;
10311;SDS011;5201;48.776;9.128;2023-05-29T09:15:38;7.00;;;2.13;;
10311;SDS011;5201;48.776;9.128;2023-05-29T09:18:07;5.30;;;2.20;;
10311;SDS011;5201;48.776;9.128;2023-05-29T09:20:33;4.60;;;2.47;;
10311;SDS011;5201;48.776;9.128;2023-05-29T09:23:00;7.35;;;2.25;;
10311;SDS011;5201;48.776;9.128;2023-05-29T09:25:30;3.65;;;2.22;;
10311;SDS011;5201;48.776;9.128;2023-05-29T09:27:58;5.13;;;2.90;;
10311;SDS011;5201;48.776;9.128;2023-05-29T09:30:35;7.70;;;2.40;;
10311;SDS011;5201;48.776;9.128;2023-05-29T09:33:05;4.50;;;2.50;;
10311;SDS011;5201;48.776;9.128;2023-05-29T09:35:33;4.85;;;2.00;;
10311;SDS011;5201;48.776;9.128;2023-05-29T09:38:03;5.10;;;1.83;;
10311;SDS011;5201;48.776;9.128;2023-05-29T09:40:30;3.70;;;2.03;;
10311;SDS011;5201;48.776;9.128;2023-05-29T09:43:01;4.63;;;2.00;;
10311;SDS011;5201;48.776;9.128;2023-05-29T09:45:42;4.70;;;3.08;;
10311;SDS011;5201;48.776;9.128;2023-05-29T09:48:13;3.00;;;1.95;;
10311;SDS011;5201;48.776;9.128;2023-05-29T09:50:40;3.58;;;2.03;;
10311;SDS011;5201;48.776;9.128;2023-05-29T09:55:48;5.22;;;2.47;;
10311;SDS011;5201;48.776;9.128;2023-05-29T09:58:15;5.30;;;2.33;;
10311;SDS011;5201;48.776;9.128;2023-05-29T10:00:43;2.90;;;2.10;;
10311;SDS011;5201;48.776;9.128;2023-05-29T10:03:09;4.72;;;2.55;;
10311;SDS011;5201;48.776;9.128;2023-05-29T10:05:37;3.63;;;2.30;;
10311;SDS011;5201;48.776;9.128;2023-05-29T10:08:04;2.83;;;1.67;;
10311;SDS011;5201;48.776;9.128;2023-05-29T10:10:33;3.33;;;1.90;;
10311;SDS011;5201;48.776;9.128;2023-05-29T10:13:00;2.70;;;2.03;;
10311;SDS011;5201;48.776;9.128;2023-05-29T10:15:28;6.03;;;2.00;;
10311;SDS011;5201;48.776;9.128;2023-05-29T10:18:03;3.72;;;1.95;;
10311;SDS011;5201;48.776;9.128;2023-05-29T10:20:34;2.28;;;2.03;;
10311;SDS011;5201;48.776;9.128;2023-05-29T10:23:01;5.55;;;2.13;;
10311;SDS011;5201;48.776;9.128;2023-05-29T10:25:29;4.18;;;2.08;;
10311;SDS011;5201;48.776;9.128;2023-05-29T10:27:56;3.67;;;2.17;;
10311;SDS011;5201;48.776;9.128;2023-05-29T10:38:31;7.50;;;1.75;;
10311;SDS011;5201;48.776;9.128;2023-05-29T10:41:19;5.18;;;1.65;;
10311;SDS011;5201;48.776;9.128;2023-05-29T10:43:49;3.00;;;1.80;;
10311;SDS011;5201;48.776;9.128;2023-05-29T10:46:14;6.60;;;2.00;;
10311;SDS011;5201;48.776;9.128;2023-05-29T10:48:40;4.57;;;2.10;;
10311;SDS011;5201;48.776;9.128;2023-05-29T10:51:06;3.15;;;2.00;;
10311;SDS011;5201;48.776;9.128;2023-05-29T10:53:33;5.38;;;2.17;;
10311;SDS011;5201;48.776;9.128;2023-05-29T10:55:59;4.75;;;1.88;;
10311;SDS011;5201;48.776;9.128;2023-05-29T10:58:26;7.85;;;2.55;;
10311;SDS011;5201;48.776;9.128;2023-05-29T11:00:53;5.45;;;2.60;;
10311;SDS011;5201;48.776;9.128;2023-05-29T11:03:24;2.33;;;1.60;;
10311;SDS011;5201;48.776;9.128;2023-05-29T11:06:06;3.88;;;1.73;;
10311;SDS011;5201;48.776;9.128;2023-05-29T11:08:43;7.88;;;2.13;;
10311;SDS011;5201;48.776;9.128;2023-05-29T11:11:15;7.72;;;2.20;;
10311;SDS011;5201;48.776;9.128;2023-05-29T11:13:54;2.03;;;1.65;;
10311;SDS011;5201;48.776;9.128;2023-05-29T11:18:50;4.43;;;1.77;;
10311;SDS011;5201;48.776;9.128;2023-05-29T11:23:58;3.22;;;1.92;;
10311;SDS011;5201;48.776;9.128;2023-05-29T11:26:27;9.27;;;1.60;;
10311;SDS011;5201;48.776;9.128;2023-05-29T11:28:57;2.60;;;1.50;;
10311;SDS011;5201;48.776;9.128;2023-05-29T11:31:26;4.55;;;1.45;;
10311;SDS011;5201;48.776;9.128;2023-05-29T11:33:57;10.88;;;1.98;;
10311;SDS011;5201;48.776;9.128;2023-05-29T11:36:25;3.20;;;1.98;;
10311;SDS011;5201;48.776;9.128;2023-05-29T11:38:52;3.65;;;1.95;;
10311;SDS011;5201;48.776;9.128;2023-05-29T11:41:18;3.75;;;2.00;;
10311;SDS011;5201;48.776;9.128;2023-05-29T11:43:44;3.83;;;1.40;;
10311;SDS011;5201;48.776;9.128;2023-05-29T11:46:20;2.03;;;1.30;;
10311;SDS011;5201;48.776;9.128;2023-05-29T11:48:46;5.82;;;1.85;;
10311;SDS011;5201;48.776;9.128;2023-05-29T11:51:12;4.85;;;1.50;;
10311;SDS011;5201;48.776;9.128;2023-05-29T11:53:42;5.68;;;2.38;;
10311;SDS011;5201;48.776;9.128;2023-05-29T11:56:11;3.20;;;1.88;;
10311;SDS011;5201;48.776;9.128;2023-05-29T11:58:40;3.83;;;2.13;;
10311;SDS011;5201;48.776;9.128;2023-05-29T12:01:07;6.80;;;1.80;;
10311;SDS011;5201;48.776;9.128;2023-05-29T12:03:40;4.47;;;1.88;;
10311;SDS011;5201;48.776;9.128;2023-05-29T12:06:06;4.10;;;1.88;;
10311;SDS011;5201;48.776;9.128;2023-05-29T12:08:35;5.13;;;1.80;;
10311;SDS011;5201;48.776;9.128;2023-05-29T12:11:02;3.58;;;1.70;;
10311;SDS011;5201;48.776;9.128;2023-05-29T12:13:28;3.58;;;1.52;;
10311;SDS011;5201;48.776;9.128;2023-05-29T12:16:03;2.53;;;1.90;;
10311;SDS011;5201;48.776;9.128;2023-05-29T12:18:30;4.40;;;1.67;;
10311;SDS011;5201;48.776;9.128;2023-05-29T12:21:02;2.03;;;1.45;;
10311;SDS011;5201;48.776;9.128;2023-05-29T12:23:29;1.75;;;1.50;;
10311;SDS011;5201;48.776;9.128;2023-05-29T12:25:55;2.55;;;1.42;;
10311;SDS011;5201;48.776;9.128;2023-05-29T12:28:21;2.45;;;1.42;;
10311;SDS011;5201;48.776;9.128;2023-05-29T12:30:48;3.78;;;1.58;;
10311;SDS011;5201;48.776;9.128;2023-05-29T12:33:40;4.38;;;1.50;;
10311;SDS011;5201;48.776;9.128;2023-05-29T12:36:08;2.75;;;1.50;;
10311;SDS011;5201;48.776;9.128;2023-05-29T12:38:48;4.40;;;1.30;;
10311;SDS011;5201;48.776;9.128;2023-05-29T12:41:28;2.50;;;2.10;;
10311;SDS011;5201;48.776;9.128;2023-05-29T12:43:55;5.03;;;1.63;;
10311;SDS011;5201;48.776;9.128;2023-05-29T12:46:22;2.60;;;1.15;;
10311;SDS011;5201;48.776;9.128;2023-05-29T12:48:48;2.67;;;1.27;;
10311;SDS011;5201;48.776;9.128;2023-05-29T12:51:14;4.03;;;1.42;;
10311;SDS011;5201;48.776;9.128;2023-05-29T12:53:42;3.40;;;1.70;;
10311;SDS011;5201;48.776;9.128;2023-05-29T12:56:08;2.75;;;1.38;;
10311;SDS011;5201;48.776;9.128;2023-05-29T12:58:34;2.10;;;1.55;;
10311;SDS011;5201;48.776;9.128;2023-05-29T13:01:00;3.97;;;1.60;;
10311;SDS011;5201;48.776;9.128;2023-05-29T13:03:25;4.00;;;1.60;;
10311;SDS011;5201;48.776;9.128;2023-05-29T13:05:51;3.85;;;1.40;;
10311;SDS011;5201;48.776;9.128;2023-05-29T13:08:18;6.45;;;1.48;;
10311;SDS011;5201;48.776;9.128;2023-05-29T13:10:45;3.05;;;1.40;;
10311;SDS011;5201;48.776;9.128;2023-05-29T13:13:10;2.58;;;1.88;;
10311;SDS011;5201;48.776;9.128;2023-05-29T13:15:37;1.67;;;1.35;;
10311;SDS011;5201;48.776;9.128;2023-05-29T13:18:05;2.35;;;1.20;;
10311;SDS011;5201;48.776;9.128;2023-05-29T13:20:30;4.07;;;2.22;;
10311;SDS011;5201;48.776;9.128;2023-05-29T13:22:57;6.25;;;1.88;;
10311;SDS011;5201;48.776;9.128;2023-05-29T13:25:23;2.75;;;1.98;;
10311;SDS011;5201;48.776;9.128;2023-05-29T13:27:50;2.40;;;1.73;;
10311;SDS011;5201;48.776;9.128;2023-05-29T13:30:17;3.42;;;1.80;;
10311;SDS011;5201;48.776;9.128;2023-05-29T13:32:43;5.63;;;1.83;;
10311;SDS011;5201;48.776;9.128;2023-05-29T13:35:09;2.08;;;1.50;;
10311;SDS011;5201;48.776;9.128;2023-05-29T13:37:38;1.98;;;1.80;;
10311;SDS011;5201;48.776;9.128;2023-05-29T13:40:04;1.27;;;1.17;;
10311;SDS011;5201;48.776;9.128;2023-05-29T13:42:31;1.50;;;1.30;;
10311;SDS011;5201;48.776;9.128;2023-05-29T13:44:57;4.60;;;1.50;;
10311;SDS011;5201;48.776;9.128;2023-05-29T13:47:23;4.32;;;1.90;;
10311;SDS011;5201;48.776;9.128;2023-05-29T13:49:51;2.95;;;1.65;;
10311;SDS011;5201;48.776;9.128;2023-05-29T13:52:17;6.63;;;1.60;;
10311;SDS011;5201;48.776;9.128;2023-05-29T13:54:42;2.90;;;1.67;;
10311;SDS011;5201;48.776;9.128;2023-05-29T13:57:08;2.20;;;1.42;;
10311;SDS011;5201;48.776;9.128;2023-05-29T13:59:34;3.92;;;1.70;;
10311;SDS011;5201;48.776;9.128;2023-05-29T14:02:00;2.03;;;1.30;;
10311;SDS011;5201;48.776;9.128;2023-05-29T14:04:28;3.20;;;1.65;;
10311;SDS011;5201;48.776;9.128;2023-05-29T14:06:54;6.10;;;2.20;;
10311;SDS011;5201;48.776;9.128;2023-05-29T14:09:21;4.38;;;1.70;;
10311;SDS011;5201;48.776;9.128;2023-05-29T14:11:57;1.70;;;1.30;;
10311;SDS011;5201;48.776;9.128;2023-05-29T14:14:24;2.65;;;1.75;;
10311;SDS011;5201;48.776;9.128;2023-05-29T14:16:50;5.40;;;1.67;;
10311;SDS011;5201;48.776;9.128;2023-05-29T14:19:16;3.13;;;1.60;;
10311;SDS011;5201;48.776;9.128;2023-05-29T14:21:43;3.50;;;1.50;;
10311;SDS011;5201;48.776;9.128;2023-05-29T14:24:08;2.72;;;1.45;;
10311;SDS011;5201;48.776;9.128;2023-05-29T14:26:34;2.35;;;1.60;;
10311;SDS011;5201;48.776;9.128;2023-05-29T14:29:00;4.32;;;1.75;;
10311;SDS011;5201;48.776;9.128;2023-05-29T14:31:26;6.20;;;1.85;;
10311;SDS011;5201;48.776;9.128;2023-05-29T14:33:51;1.70;;;1.50;;
10311;SDS011;5201;48.776;9.128;2023-05-29T14:36:17;5.60;;;1.40;;
10311;SDS011;5201;48.776;9.128;2023-05-29T14:38:43;4.20;;;1.65;;
10311;SDS011;5201;48.776;9.128;2023-05-29T14:41:09;3.30;;;1.65;;
10311;SDS011;5201;48.776;9.128;2023-05-29T14:43:36;1.95;;;1.50;;
10311;SDS011;5201;48.776;9.128;2023-05-29T14:46:03;2.47;;;1.42;;
10311;SDS011;5201;48.776;9.128;2023-05-29T14:48:29;2.92;;;1.27;;
10311;SDS011;5201;48.776;9.128;2023-05-29T14:50:55;2.33;;;1.38;;
10311;SDS011;5201;48.776;9.128;2023-05-29T14:53:20;1.85;;;1.35;;
10311;SDS011;5201;48.776;9.128;2023-05-29T14:55:47;3.22;;;1.48;;
10311;SDS011;5201;48.776;9.128;2023-05-29T14:58:13;2.83;;;1.35;;
10311;SDS011;5201;48.776;9.128;2023-05-29T15:00:39;4.20;;;1.70;;
10311;SDS011;5201;48.776;9.128;2023-05-29T15:03:05;2.33;;;1.45;;
10311;SDS011;5201;48.776;9.128;2023-05-29T15:05:30;3.95;;;1.48;;
10311;SDS011;5201;48.776;9.128;2023-05-29T15:07:56;3.30;;;1.70;;
10311;SDS011;5201;48.776;9.128;2023-05-29T15:10:23;2.63;;;1.67;;
10311;SDS011;5201;48.776;9.128;2023-05-29T15:12:49;3.67;;;1.40;;
10311;SDS011;5201;48.776;9.128;2023-05-29T15:15:21;2.10;;;1.30;;
10311;SDS011;5201;48.776;9.128;2023-05-29T15:17:51;2.42;;;1.23;;
10311;SDS011;5201;48.776;9.128;2023-05-29T15:20:20;6.72;;;1.70;;
10311;SDS011;5201;48.776;9.128;2023-05-29T15:22:49;4.75;;;1.40;;
10311;SDS011;5201;48.776;9.128;2023-05-29T15:25:16;3.88;;;1.40;;
10311;SDS011;5201;48.776;9.128;2023-05-29T15:27:42;2.55;;;1.52;;